Time;durP1;ratioP1;P1;durP2;ratioP2;P2;SDS_P1;SDS_P2;PMS_P1;PMS_P2;Temp;Humidity;BMP_temperature;BMP_pressure;BME280_temperature;BME280_humidity;BME280_pressure;Samples;Min_cycle;Max_cycle;Signal;HPM_P1;HPM_P2
2022/07/31 00:01:19;;;;;;;3.22;0.95;;;19.90;98.80;;;;;;4993686;28;20100;-69
2022/07/31 00:03:45;;;;;;;2.35;0.88;;;19.90;98.80;;;;;;4996490;28;20030;-69
2022/07/31 00:06:10;;;;;;;4.57;0.93;;;19.90;98.80;;;;;;4996350;28;20061;-69
2022/07/31 00:08:36;;;;;;;6.55;1.10;;;19.90;99.00;;;;;;4998501;28;20115;-69
2022/07/31 00:11:02;;;;;;;2.00;0.80;;;19.90;99.00;;;;;;5005765;28;20120;-70
2022/07/31 00:13:27;;;;;;;1.88;0.82;;;19.80;98.90;;;;;;4994052;28;20042;-69
2022/07/31 00:15:53;;;;;;;4.07;1.10;;;19.80;99.10;;;;;;4995671;28;20027;-69
2022/07/31 00:18:18;;;;;;;3.45;1.10;;;19.80;99.30;;;;;;4994825;28;20046;-69
2022/07/31 00:20:44;;;;;;;3.83;1.35;;;19.80;99.30;;;;;;4993808;28;20035;-69
2022/07/31 00:23:10;;;;;;;5.60;1.13;;;19.80;99.30;;;;;;4995196;28;20042;-70
2022/07/31 00:25:35;;;;;;;3.60;1.30;;;19.90;99.30;;;;;;5000626;28;20125;-69
2022/07/31 00:28:01;;;;;;;4.03;1.20;;;19.90;99.40;;;;;;4997151;28;20033;-68
2022/07/31 00:30:27;;;;;;;4.55;1.48;;;19.90;99.50;;;;;;4994676;28;20034;-67
2022/07/31 00:32:52;;;;;;;5.82;1.42;;;19.80;99.70;;;;;;4994434;28;20049;-70
2022/07/31 00:35:18;;;;;;;3.97;2.17;;;19.90;99.90;;;;;;4996519;28;20565;-69
2022/07/31 00:37:44;;;;;;;4.65;1.60;;;19.80;99.90;;;;;;4993401;28;20042;-70
2022/07/31 00:40:12;;;;;;;3.53;1.63;;;19.80;99.90;;;;;;4997299;28;20092;-70
2022/07/31 00:42:38;;;;;;;4.28;2.22;;;19.80;99.90;;;;;;4995358;28;20145;-69
2022/07/31 00:45:04;;;;;;;4.00;1.83;;;19.80;99.90;;;;;;4994363;28;20576;-69
2022/07/31 00:47:30;;;;;;;3.30;2.40;;;19.80;99.90;;;;;;4994100;28;20061;-69
2022/07/31 00:49:56;;;;;;;4.72;2.50;;;19.70;99.90;;;;;;4995055;28;20107;-70
2022/07/31 00:52:22;;;;;;;5.05;2.65;;;19.70;99.90;;;;;;4992861;28;20403;-68
2022/07/31 00:54:48;;;;;;;9.43;3.50;;;19.70;99.90;;;;;;4993995;28;20053;-68
2022/07/31 00:57:14;;;;;;;3.80;2.58;;;19.70;99.90;;;;;;5008795;28;20037;-69
2022/07/31 00:59:40;;;;;;;4.95;2.63;;;19.70;99.90;;;;;;4996350;28;20019;-68
2022/07/31 01:02:07;;;;;;;6.90;3.00;;;19.60;99.90;;;;;;4997281;28;20026;-69
2022/07/31 01:04:33;;;;;;;7.82;3.00;;;19.60;99.90;;;;;;4998331;28;20482;-69
2022/07/31 01:07:01;;;;;;;5.18;2.75;;;19.50;99.90;;;;;;4994558;28;20132;-70
2022/07/31 01:09:27;;;;;;;11.30;3.10;;;19.50;99.90;;;;;;4995946;28;20030;-70
2022/07/31 01:12:08;;;;;;;4.82;3.28;;;19.50;99.90;;;;;;4994575;28;20032;-70
2022/07/31 01:14:56;;;;;;;8.52;3.05;;;19.50;99.90;;;;;;5010650;28;20490;-66
2022/07/31 01:17:24;;;;;;;5.13;2.97;;;19.50;99.90;;;;;;4998678;28;20525;-67
2022/07/31 01:19:51;;;;;;;7.80;3.72;;;19.40;99.90;;;;;;5004476;28;20025;-70
2022/07/31 01:22:53;;;;;;;5.20;3.63;;;19.40;99.90;;;;;;4994893;28;20030;-68
2022/07/31 01:25:30;;;;;;;6.15;3.08;;;19.40;99.90;;;;;;5002059;28;20502;-69
2022/07/31 01:28:12;;;;;;;9.43;3.92;;;19.30;99.90;;;;;;4996259;28;20061;-71
2022/07/31 01:30:58;;;;;;;4.65;2.95;;;19.30;99.90;;;;;;4996233;28;20521;-69
2022/07/31 01:33:31;;;;;;;5.57;2.80;;;19.30;99.90;;;;;;4992390;28;20031;-68
2022/07/31 01:36:15;;;;;;;8.05;3.55;;;19.20;99.90;;;;;;4994175;28;20406;-67
2022/07/31 01:38:46;;;;;;;5.43;2.75;;;19.20;99.90;;;;;;4996045;28;20042;-71
2022/07/31 01:41:15;;;;;;;7.65;2.80;;;19.20;99.90;;;;;;4994267;28;20042;-69
2022/07/31 01:43:43;;;;;;;10.40;3.55;;;19.20;99.90;;;;;;4996548;28;20038;-68
2022/07/31 01:46:12;;;;;;;8.30;3.50;;;19.20;99.90;;;;;;4995848;28;20105;-67
2022/07/31 01:48:39;;;;;;;9.00;3.28;;;19.20;99.90;;;;;;4999868;28;20513;-69
2022/07/31 01:51:07;;;;;;;7.72;3.53;;;19.20;99.90;;;;;;5011917;28;20422;-71
2022/07/31 01:53:35;;;;;;;4.40;2.58;;;19.20;99.90;;;;;;4998189;28;20113;-69
2022/07/31 01:56:01;;;;;;;8.65;2.70;;;19.20;99.90;;;;;;5000083;28;20033;-69
2022/07/31 01:58:31;;;;;;;4.65;2.22;;;19.20;99.90;;;;;;4997701;28;20481;-68
2022/07/31 02:00:59;;;;;;;7.40;2.97;;;19.20;99.90;;;;;;4999333;28;20026;-69
2022/07/31 02:03:25;;;;;;;6.80;2.83;;;19.20;99.90;;;;;;4997127;28;20042;-70
2022/07/31 02:05:52;;;;;;;6.80;3.22;;;19.20;99.90;;;;;;5000577;28;20022;-67
2022/07/31 02:08:19;;;;;;;6.07;2.53;;;19.30;99.90;;;;;;4998300;28;20032;-69
2022/07/31 02:10:45;;;;;;;6.47;3.25;;;19.20;99.90;;;;;;4997756;28;20050;-70
2022/07/31 02:13:12;;;;;;;6.60;2.85;;;19.30;99.90;;;;;;4996814;28;20030;-69
2022/07/31 02:15:43;;;;;;;6.43;3.22;;;19.20;99.90;;;;;;4999344;28;20116;-70
2022/07/31 02:18:10;;;;;;;6.13;2.85;;;19.20;99.90;;;;;;5003610;28;20558;-70
2022/07/31 02:20:38;;;;;;;3.90;2.45;;;19.20;99.90;;;;;;4995181;28;20038;-67
2022/07/31 02:23:04;;;;;;;10.55;3.10;;;19.20;99.90;;;;;;4997425;28;20034;-70
2022/07/31 02:25:34;;;;;;;7.82;2.67;;;19.20;99.90;;;;;;5003913;28;20461;-69
2022/07/31 02:28:00;;;;;;;4.30;2.70;;;19.20;99.90;;;;;;5003631;28;20073;-69
2022/07/31 02:30:29;;;;;;;7.43;3.47;;;19.20;99.90;;;;;;4996240;28;20093;-69
2022/07/31 02:32:55;;;;;;;6.43;2.83;;;19.20;99.90;;;;;;4997562;28;20034;-69
2022/07/31 02:35:21;;;;;;;11.45;2.95;;;19.20;99.90;;;;;;4995295;28;20049;-69
2022/07/31 02:37:50;;;;;;;6.22;3.10;;;19.20;99.90;;;;;;4996827;28;20046;-69
2022/07/31 02:40:17;;;;;;;4.70;2.53;;;19.20;99.90;;;;;;4997143;28;20095;-68
2022/07/31 02:42:45;;;;;;;5.10;3.13;;;19.20;99.90;;;;;;4995943;28;20034;-69
2022/07/31 02:45:11;;;;;;;7.72;2.50;;;19.20;99.90;;;;;;4998460;28;20044;-69
2022/07/31 02:47:37;;;;;;;7.90;2.85;;;19.20;99.90;;;;;;4993504;28;20046;-68
2022/07/31 02:50:04;;;;;;;6.00;3.20;;;19.20;99.90;;;;;;4999159;28;20052;-69
2022/07/31 02:52:30;;;;;;;9.80;4.20;;;19.20;99.90;;;;;;4995851;28;20095;-68
2022/07/31 02:54:57;;;;;;;4.82;2.40;;;19.20;99.90;;;;;;4995591;28;20031;-69
2022/07/31 02:57:23;;;;;;;7.53;3.00;;;19.20;99.90;;;;;;4996295;28;20113;-69
2022/07/31 02:59:49;;;;;;;6.47;3.20;;;19.20;99.90;;;;;;4995100;28;20037;-69
2022/07/31 03:02:14;;;;;;;10.80;2.90;;;19.20;99.90;;;;;;4996409;28;20023;-69
2022/07/31 03:04:40;;;;;;;8.27;2.63;;;19.10;99.90;;;;;;5000902;28;20030;-70
2022/07/31 03:07:05;;;;;;;9.57;3.53;;;19.10;99.90;;;;;;4995973;28;20037;-70
2022/07/31 03:09:31;;;;;;;6.80;2.30;;;19.10;99.90;;;;;;4997949;28;20109;-68
2022/07/31 03:11:57;;;;;;;6.57;2.78;;;19.10;99.90;;;;;;4994132;28;20023;-69
2022/07/31 03:14:25;;;;;;;7.00;2.60;;;19.10;99.90;;;;;;4997184;28;20040;-70
2022/07/31 03:16:52;;;;;;;6.20;2.80;;;19.10;99.90;;;;;;4994977;28;20682;-68
2022/07/31 03:19:21;;;;;;;5.03;2.75;;;19.10;99.90;;;;;;4997262;28;20037;-68
2022/07/31 03:21:48;;;;;;;10.07;2.90;;;19.10;99.90;;;;;;4996199;28;20463;-70
2022/07/31 03:24:14;;;;;;;7.30;3.05;;;19.10;99.90;;;;;;4997105;28;20038;-69
2022/07/31 03:26:39;;;;;;;4.65;2.20;;;19.10;99.90;;;;;;5006444;28;20486;-69
2022/07/31 03:29:05;;;;;;;5.80;2.85;;;19.10;99.90;;;;;;4998003;28;20076;-70
2022/07/31 03:31:30;;;;;;;8.00;2.53;;;19.10;99.90;;;;;;4993883;28;20093;-70
2022/07/31 03:33:56;;;;;;;4.85;2.25;;;19.10;99.90;;;;;;4997540;28;20104;-70
2022/07/31 03:36:22;;;;;;;11.20;3.15;;;19.10;99.90;;;;;;4992116;28;20511;-69
2022/07/31 03:38:48;;;;;;;4.90;2.63;;;19.10;99.90;;;;;;4996272;28;20149;-70
2022/07/31 03:41:14;;;;;;;3.97;2.53;;;19.10;99.90;;;;;;4996693;28;20494;-70
2022/07/31 03:43:41;;;;;;;6.93;2.60;;;19.10;99.90;;;;;;4992991;28;20042;-70
2022/07/31 03:46:08;;;;;;;7.45;2.97;;;19.10;99.90;;;;;;4995583;28;20095;-70
2022/07/31 03:48:34;;;;;;;8.80;2.85;;;19.10;99.90;;;;;;4994496;28;20031;-70
2022/07/31 03:51:00;;;;;;;5.43;2.78;;;19.10;99.90;;;;;;4997684;28;20034;-70
2022/07/31 03:53:27;;;;;;;9.45;3.67;;;19.10;99.90;;;;;;4993878;28;20514;-70
2022/07/31 03:55:54;;;;;;;8.68;3.35;;;19.10;99.90;;;;;;5000678;28;20030;-69
2022/07/31 03:58:20;;;;;;;7.15;3.28;;;19.10;99.90;;;;;;4994547;28;20502;-69
2022/07/31 04:00:46;;;;;;;7.15;2.75;;;19.10;99.90;;;;;;4994946;28;20124;-70
2022/07/31 04:03:13;;;;;;;6.55;3.00;;;19.10;99.90;;;;;;4995378;28;20120;-70
2022/07/31 04:05:40;;;;;;;6.18;3.00;;;19.10;99.90;;;;;;5002221;28;20045;-70
2022/07/31 04:08:06;;;;;;;6.38;3.00;;;19.10;99.90;;;;;;4995616;28;20044;-70
2022/07/31 04:10:32;;;;;;;4.55;2.55;;;19.10;99.90;;;;;;4993946;28;20038;-70
2022/07/31 04:12:58;;;;;;;7.30;2.92;;;19.10;99.90;;;;;;4995664;28;20148;-70
2022/07/31 04:15:24;;;;;;;8.50;2.65;;;19.10;99.90;;;;;;4994695;28;20584;-69
2022/07/31 04:17:49;;;;;;;8.65;3.17;;;19.10;99.90;;;;;;4996533;28;20045;-70
2022/07/31 04:20:16;;;;;;;10.57;2.70;;;19.00;99.90;;;;;;4996076;28;20490;-69
2022/07/31 04:22:41;;;;;;;6.70;2.95;;;19.10;99.90;;;;;;4992909;28;20371;-70
2022/07/31 04:25:07;;;;;;;8.07;2.90;;;19.00;99.90;;;;;;4999799;28;20506;-70
2022/07/31 04:27:36;;;;;;;8.45;3.17;;;19.00;99.90;;;;;;4996831;28;20045;-69
2022/07/31 04:30:02;;;;;;;8.35;2.90;;;19.10;99.90;;;;;;4995710;28;20065;-68
2022/07/31 04:32:28;;;;;;;5.13;2.53;;;19.10;99.90;;;;;;4991566;28;20093;-69
2022/07/31 04:34:53;;;;;;;9.90;3.00;;;19.00;99.90;;;;;;4995944;28;20034;-69
2022/07/31 04:37:19;;;;;;;5.95;2.63;;;19.10;99.90;;;;;;4994726;28;20117;-70
2022/07/31 04:39:45;;;;;;;8.35;3.15;;;19.10;99.90;;;;;;4997864;28;20042;-70
2022/07/31 04:42:11;;;;;;;7.15;2.33;;;19.10;99.90;;;;;;4996643;28;20026;-70
2022/07/31 04:44:36;;;;;;;7.15;3.05;;;19.10;99.90;;;;;;4996166;28;20034;-69
2022/07/31 04:47:04;;;;;;;5.03;2.58;;;19.10;99.90;;;;;;4996220;28;20057;-69
2022/07/31 04:49:31;;;;;;;5.00;2.63;;;19.10;99.90;;;;;;4998206;28;20128;-70
2022/07/31 04:51:58;;;;;;;4.68;2.78;;;19.20;99.90;;;;;;4993856;28;20022;-70
2022/07/31 04:54:24;;;;;;;8.68;3.47;;;19.10;99.90;;;;;;4996644;28;20422;-70
2022/07/31 04:56:50;;;;;;;5.63;2.10;;;19.10;99.90;;;;;;4993475;28;20034;-70
2022/07/31 04:59:19;;;;;;;16.40;2.97;;;19.10;99.90;;;;;;4996491;28;20034;-69
2022/07/31 05:01:45;;;;;;;8.20;3.20;;;19.10;99.90;;;;;;4999976;28;20045;-69
2022/07/31 05:04:11;;;;;;;6.10;3.15;;;19.10;99.90;;;;;;5007536;28;20038;-70
2022/07/31 05:06:40;;;;;;;4.90;2.80;;;19.10;99.90;;;;;;4996365;28;20038;-70
2022/07/31 05:09:08;;;;;;;6.10;2.55;;;19.10;99.90;;;;;;4995485;28;20486;-70
2022/07/31 05:11:34;;;;;;;7.13;2.75;;;19.10;99.90;;;;;;4992034;28;20062;-68
2022/07/31 05:14:02;;;;;;;4.88;2.65;;;19.10;99.90;;;;;;4995205;28;20387;-70
2022/07/31 05:16:29;;;;;;;5.85;2.72;;;19.10;99.90;;;;;;4993658;28;20062;-70
2022/07/31 05:18:55;;;;;;;6.82;3.08;;;19.10;99.90;;;;;;4999076;28;20037;-70
2022/07/31 05:21:21;;;;;;;5.70;2.80;;;19.10;99.90;;;;;;5000404;28;20064;-68
2022/07/31 05:23:48;;;;;;;7.53;2.70;;;19.20;99.90;;;;;;4994738;28;20062;-70
2022/07/31 05:26:15;;;;;;;5.97;2.90;;;19.20;99.90;;;;;;5003269;28;20043;-70
2022/07/31 05:28:42;;;;;;;8.93;2.60;;;19.20;99.90;;;;;;4998450;28;20035;-70
2022/07/31 05:31:08;;;;;;;7.13;2.75;;;19.20;99.90;;;;;;4998643;28;20064;-70
2022/07/31 05:33:34;;;;;;;7.60;2.90;;;19.30;99.90;;;;;;4996769;28;20471;-67
2022/07/31 05:36:01;;;;;;;6.32;3.00;;;19.30;99.90;;;;;;4999368;28;20116;-70
2022/07/31 05:38:27;;;;;;;6.15;2.90;;;19.30;99.90;;;;;;4996379;28;20045;-68
2022/07/31 05:40:52;;;;;;;7.00;3.20;;;19.30;99.90;;;;;;4999221;28;20037;-69
2022/07/31 05:43:19;;;;;;;6.60;3.03;;;19.30;99.90;;;;;;4996065;28;20034;-69
2022/07/31 05:45:45;;;;;;;6.00;2.85;;;19.30;99.90;;;;;;4998550;28;20037;-70
2022/07/31 05:48:15;;;;;;;10.32;3.63;;;19.30;99.90;;;;;;4996054;28;20065;-70
2022/07/31 05:50:45;;;;;;;8.88;3.58;;;19.30;99.90;;;;;;4993662;28;20137;-68
2022/07/31 05:53:13;;;;;;;6.55;3.28;;;19.30;99.90;;;;;;4996870;28;20046;-70
2022/07/31 05:55:40;;;;;;;7.90;3.50;;;19.30;99.90;;;;;;4995269;28;20064;-70
2022/07/31 05:58:06;;;;;;;5.63;3.25;;;19.30;99.90;;;;;;4996085;28;20074;-70
2022/07/31 06:00:32;;;;;;;5.93;3.60;;;19.30;99.90;;;;;;4997961;28;20046;-68
2022/07/31 06:02:58;;;;;;;6.43;3.22;;;19.30;99.90;;;;;;4998681;28;20054;-69
2022/07/31 06:05:28;;;;;;;9.65;4.20;;;19.30;99.90;;;;;;5005361;28;20034;-70
2022/07/31 06:07:54;;;;;;;10.30;5.38;;;19.40;99.90;;;;;;4999813;28;20129;-70
2022/07/31 06:10:20;;;;;;;7.50;3.70;;;19.40;99.90;;;;;;4995626;28;20522;-69
2022/07/31 06:12:46;;;;;;;9.15;4.20;;;19.40;99.90;;;;;;4997567;28;20042;-70
2022/07/31 06:15:12;;;;;;;10.70;4.25;;;19.40;99.90;;;;;;5000677;28;20798;-69
2022/07/31 06:17:38;;;;;;;8.00;3.50;;;19.40;99.90;;;;;;5006962;28;20042;-70
2022/07/31 06:20:05;;;;;;;9.95;3.60;;;19.50;99.90;;;;;;4998486;28;20026;-68
2022/07/31 06:22:30;;;;;;;16.10;4.43;;;19.60;99.90;;;;;;4997157;28;20227;-69
2022/07/31 06:24:56;;;;;;;8.00;3.72;;;19.60;99.90;;;;;;4999174;28;20551;-70
2022/07/31 06:27:21;;;;;;;12.05;4.65;;;19.70;99.90;;;;;;4999334;28;20129;-70
2022/07/31 06:29:47;;;;;;;10.15;4.60;;;19.70;99.90;;;;;;5001139;28;20056;-70
2022/07/31 06:32:13;;;;;;;9.00;4.65;;;19.70;99.90;;;;;;4998768;28;20042;-70
2022/07/31 06:34:40;;;;;;;12.38;4.90;;;19.70;99.90;;;;;;4996718;28;20069;-70
2022/07/31 06:37:06;;;;;;;12.88;5.20;;;19.80;99.90;;;;;;4997396;28;20033;-68
2022/07/31 06:39:31;;;;;;;9.70;5.15;;;19.80;99.90;;;;;;4996486;28;20050;-69
2022/07/31 06:41:57;;;;;;;10.32;4.72;;;19.80;99.90;;;;;;4998516;28;20030;-68
2022/07/31 06:44:23;;;;;;;12.23;5.07;;;19.80;99.90;;;;;;5010323;28;20133;-70
2022/07/31 06:46:50;;;;;;;13.95;5.45;;;19.80;99.90;;;;;;4998460;28;20038;-70
2022/07/31 06:49:16;;;;;;;15.65;5.10;;;19.80;99.90;;;;;;4999682;28;20045;-71
2022/07/31 06:51:42;;;;;;;15.90;5.75;;;19.90;99.90;;;;;;4995936;28;20088;-70
2022/07/31 06:54:09;;;;;;;16.27;5.95;;;19.90;99.90;;;;;;4994167;28;20435;-70
2022/07/31 06:56:36;;;;;;;13.18;6.28;;;20.00;99.90;;;;;;5000901;28;20109;-68
2022/07/31 06:59:03;;;;;;;12.32;5.53;;;20.00;99.90;;;;;;4995378;28;20125;-70
2022/07/31 07:01:29;;;;;;;15.43;6.38;;;20.00;99.90;;;;;;4994447;28;20034;-68
2022/07/31 07:03:55;;;;;;;12.88;5.40;;;20.10;99.90;;;;;;5000985;28;20520;-70
2022/07/31 07:06:22;;;;;;;12.02;5.50;;;20.20;99.90;;;;;;4996622;28;20150;-69
2022/07/31 07:08:47;;;;;;;12.35;5.25;;;20.20;99.90;;;;;;4992406;28;20124;-70
2022/07/31 07:11:13;;;;;;;15.60;6.65;;;20.30;99.90;;;;;;4993087;28;20042;-68
2022/07/31 07:13:39;;;;;;;22.10;6.57;;;20.30;99.90;;;;;;4991585;28;20038;-71
2022/07/31 07:16:05;;;;;;;17.77;6.70;;;20.30;99.90;;;;;;4997308;28;20022;-70
2022/07/31 07:18:31;;;;;;;17.02;6.90;;;20.30;99.90;;;;;;4997253;28;21526;-70
2022/07/31 07:20:56;;;;;;;17.30;7.60;;;20.40;99.90;;;;;;4996287;28;20118;-70
2022/07/31 07:23:22;;;;;;;18.27;7.35;;;20.40;99.90;;;;;;4993798;28;20042;-70
2022/07/31 07:25:48;;;;;;;21.50;8.70;;;20.50;99.90;;;;;;4998097;28;20117;-70
2022/07/31 07:28:14;;;;;;;21.30;8.70;;;20.50;99.90;;;;;;4998926;28;20023;-70
2022/07/31 07:30:40;;;;;;;16.77;7.45;;;20.40;99.90;;;;;;4993688;28;20530;-69
2022/07/31 07:33:06;;;;;;;20.77;7.85;;;20.50;99.90;;;;;;4992797;28;20125;-70
2022/07/31 07:35:31;;;;;;;23.27;8.60;;;20.50;99.90;;;;;;4995185;28;20030;-70
2022/07/31 07:37:58;;;;;;;21.05;8.95;;;20.50;99.90;;;;;;4996528;28;20581;-70
2022/07/31 07:40:24;;;;;;;26.05;8.95;;;20.50;99.90;;;;;;4997197;28;20498;-70
2022/07/31 07:42:50;;;;;;;18.77;9.15;;;20.50;99.90;;;;;;4996209;28;20044;-68
2022/07/31 07:45:16;;;;;;;22.55;8.48;;;20.50;99.90;;;;;;4993767;28;20034;-71
2022/07/31 07:47:42;;;;;;;21.55;9.23;;;20.40;99.90;;;;;;4994779;28;20045;-71
2022/07/31 07:50:08;;;;;;;22.58;8.80;;;20.40;99.90;;;;;;5011929;28;20532;-70
2022/07/31 07:52:35;;;;;;;23.27;9.88;;;20.30;99.90;;;;;;4992299;28;20426;-71
2022/07/31 07:55:01;;;;;;;22.25;9.57;;;20.30;99.90;;;;;;4994362;28;20596;-71
2022/07/31 07:57:27;;;;;;;21.33;9.32;;;20.30;99.90;;;;;;4994722;28;20088;-70
2022/07/31 07:59:53;;;;;;;21.20;8.82;;;20.40;99.90;;;;;;4997524;28;20099;-69
2022/07/31 08:02:19;;;;;;;23.55;9.60;;;20.40;99.90;;;;;;5002310;28;20088;-69
2022/07/31 08:04:45;;;;;;;22.30;9.07;;;20.50;99.90;;;;;;5003059;28;20442;-70
2022/07/31 08:07:10;;;;;;;25.27;9.60;;;20.60;99.90;;;;;;4996534;28;20037;-71
2022/07/31 08:09:36;;;;;;;20.00;8.88;;;20.50;99.90;;;;;;4994814;28;20038;-70
2022/07/31 08:12:03;;;;;;;25.77;11.15;;;20.40;99.90;;;;;;4996158;28;20589;-71
2022/07/31 08:14:29;;;;;;;25.25;9.82;;;20.30;99.90;;;;;;4997222;28;20517;-70
2022/07/31 08:16:55;;;;;;;31.35;11.45;;;20.10;99.90;;;;;;4994458;28;20066;-71
2022/07/31 08:19:20;;;;;;;25.20;10.95;;;19.90;99.90;;;;;;5002183;28;20053;-69
2022/07/31 08:21:47;;;;;;;28.15;11.48;;;19.80;99.90;;;;;;5010288;28;20037;-70
2022/07/31 08:24:15;;;;;;;29.10;11.57;;;19.70;99.90;;;;;;4996606;28;20742;-70
2022/07/31 08:29:25;;;;;;;25.08;10.77;;;19.70;99.90;;;;;;4997259;28;20167;-71
2022/07/31 08:31:50;;;;;;;28.45;11.27;;;19.80;99.90;;;;;;4992735;28;20502;-70
2022/07/31 08:34:17;;;;;;;34.88;11.75;;;19.80;99.90;;;;;;4995320;28;20037;-71
2022/07/31 08:36:42;;;;;;;27.55;10.90;;;19.90;99.90;;;;;;4992119;28;20034;-70
2022/07/31 08:39:08;;;;;;;30.48;11.70;;;20.00;99.90;;;;;;4996013;28;20040;-69
2022/07/31 08:41:37;;;;;;;30.15;11.35;;;20.10;99.90;;;;;;4992910;28;20041;-71
2022/07/31 08:44:04;;;;;;;28.33;11.20;;;20.10;99.90;;;;;;4993309;28;20062;-71
2022/07/31 08:46:38;;;;;;;26.45;11.68;;;20.20;99.90;;;;;;4993839;28;20049;-71
2022/07/31 08:49:05;;;;;;;26.40;11.48;;;20.20;99.90;;;;;;4996636;28;20105;-71
2022/07/31 08:51:36;;;;;;;28.17;11.27;;;20.20;99.90;;;;;;4995804;28;20045;-71
2022/07/31 08:54:06;;;;;;;22.38;10.82;;;20.20;99.90;;;;;;4994855;28;20030;-70
2022/07/31 08:56:35;;;;;;;29.27;9.95;;;20.20;99.90;;;;;;5007956;28;20041;-70
2022/07/31 08:59:02;;;;;;;29.70;10.07;;;20.20;99.90;;;;;;4993478;28;20053;-71
2022/07/31 09:01:28;;;;;;;21.88;10.48;;;20.30;99.90;;;;;;5009659;28;20064;-70
2022/07/31 09:03:55;;;;;;;20.58;9.65;;;20.20;99.90;;;;;;4995097;28;20037;-71
2022/07/31 09:06:21;;;;;;;19.27;9.57;;;20.20;99.90;;;;;;4996909;28;20035;-70
2022/07/31 09:08:47;;;;;;;24.05;10.65;;;20.20;99.90;;;;;;4991614;28;20030;-68
2022/07/31 09:11:13;;;;;;;19.90;10.15;;;20.20;99.90;;;;;;4992940;28;20034;-70
2022/07/31 09:13:50;;;;;;;19.05;9.95;;;20.10;99.90;;;;;;5007223;28;20042;-71
2022/07/31 09:16:16;;;;;;;19.20;9.82;;;20.00;99.90;;;;;;4992055;28;20149;-71
2022/07/31 09:18:42;;;;;;;21.63;10.15;;;20.00;99.90;;;;;;4995371;28;20506;-71
2022/07/31 09:21:07;;;;;;;18.55;9.45;;;19.90;99.90;;;;;;5001367;28;20096;-71
2022/07/31 09:23:43;;;;;;;17.38;9.50;;;19.90;99.90;;;;;;4998511;28;20046;-70
2022/07/31 09:26:09;;;;;;;17.63;10.35;;;19.80;99.90;;;;;;5000667;28;20632;-70
2022/07/31 09:28:37;;;;;;;19.27;9.70;;;19.80;99.90;;;;;;5000640;28;20030;-71
2022/07/31 09:31:05;;;;;;;23.30;10.02;;;19.70;99.90;;;;;;5001830;28;20026;-70
2022/07/31 09:33:31;;;;;;;25.50;10.50;;;19.80;99.90;;;;;;4999324;28;20034;-70
2022/07/31 09:35:58;;;;;;;27.15;12.45;;;19.90;99.90;;;;;;5000006;28;20037;-70
2022/07/31 09:38:36;;;;;;;23.98;11.00;;;19.90;99.90;;;;;;5001720;28;20037;-71
2022/07/31 09:41:14;;;;;;;21.50;10.65;;;20.00;99.90;;;;;;4993784;28;20398;-71
2022/07/31 09:43:41;;;;;;;21.90;9.90;;;20.00;99.90;;;;;;5012809;28;20073;-71
2022/07/31 09:46:08;;;;;;;20.58;10.40;;;20.00;99.90;;;;;;4996066;28;20030;-70
2022/07/31 09:48:35;;;;;;;22.83;9.98;;;20.00;99.90;;;;;;5007312;28;20050;-70
2022/07/31 09:51:04;;;;;;;22.10;10.05;;;20.10;99.90;;;;;;4995880;28;20034;-71
2022/07/31 09:53:44;;;;;;;19.75;9.63;;;20.20;99.90;;;;;;4992264;28;20125;-69
2022/07/31 09:56:11;;;;;;;20.38;10.18;;;20.20;99.90;;;;;;4997682;28;20508;-70
2022/07/31 09:58:41;;;;;;;16.98;9.27;;;20.20;99.90;;;;;;4996186;28;20034;-71
2022/07/31 10:01:11;;;;;;;23.80;10.40;;;20.20;99.90;;;;;;4996840;28;20607;-70
2022/07/31 10:03:38;;;;;;;19.25;9.07;;;20.20;99.90;;;;;;4996789;28;20025;-69
2022/07/31 10:06:07;;;;;;;18.13;9.90;;;20.30;99.90;;;;;;5001218;28;20033;-70
2022/07/31 10:08:37;;;;;;;19.13;8.80;;;20.30;99.90;;;;;;5013057;28;20084;-69
2022/07/31 10:11:04;;;;;;;20.98;10.30;;;20.40;99.90;;;;;;4996897;28;20030;-70
2022/07/31 10:13:34;;;;;;;17.10;8.50;;;20.40;99.90;;;;;;4997633;28;20140;-69
2022/07/31 10:16:01;;;;;;;16.10;8.80;;;20.30;99.90;;;;;;4995312;28;20663;-69
2022/07/31 10:18:30;;;;;;;17.35;9.90;;;20.20;99.90;;;;;;4995863;28;20137;-70
2022/07/31 10:20:58;;;;;;;16.38;9.55;;;20.20;99.90;;;;;;5004828;28;20038;-70
2022/07/31 10:23:27;;;;;;;14.23;8.38;;;20.20;99.90;;;;;;5001566;28;20033;-68
2022/07/31 10:25:58;;;;;;;16.90;9.07;;;20.10;99.90;;;;;;5005398;28;20059;-71
2022/07/31 10:28:25;;;;;;;14.90;9.00;;;20.00;99.90;;;;;;5003600;28;20030;-70
2022/07/31 10:30:51;;;;;;;14.75;9.23;;;19.90;99.90;;;;;;5005861;28;20600;-69
2022/07/31 10:33:18;;;;;;;17.92;9.48;;;19.90;99.90;;;;;;5007344;28;20038;-70
2022/07/31 10:36:03;;;;;;;18.38;10.15;;;19.90;99.90;;;;;;5006784;28;20073;-70
2022/07/31 10:38:51;;;;;;;16.05;9.35;;;20.00;99.90;;;;;;5006739;28;20034;-71
2022/07/31 10:41:33;;;;;;;16.17;9.13;;;19.90;99.90;;;;;;5003951;28;20103;-70
2022/07/31 10:44:02;;;;;;;21.48;11.10;;;19.90;99.90;;;;;;5003491;28;20367;-70
2022/07/31 10:46:30;;;;;;;18.30;9.15;;;19.90;99.90;;;;;;5005028;28;20033;-70
2022/07/31 10:48:56;;;;;;;17.33;9.63;;;19.90;99.90;;;;;;5005980;28;20030;-70
2022/07/31 10:51:22;;;;;;;21.13;10.70;;;19.90;99.90;;;;;;5003800;28;20513;-71
2022/07/31 10:53:56;;;;;;;17.48;8.95;;;19.90;99.90;;;;;;5001642;28;20033;-71
2022/07/31 10:56:22;;;;;;;18.83;9.35;;;19.90;99.90;;;;;;5002346;28;20049;-69
2022/07/31 10:58:53;;;;;;;14.80;9.35;;;20.00;99.90;;;;;;5008230;28;20042;-70
2022/07/31 11:01:19;;;;;;;16.23;8.85;;;20.00;99.90;;;;;;5004097;28;20085;-71
2022/07/31 11:03:48;;;;;;;15.40;9.15;;;20.00;99.90;;;;;;5001539;28;20029;-70
2022/07/31 11:06:15;;;;;;;15.23;8.80;;;20.00;99.90;;;;;;5004623;28;20177;-70
2022/07/31 11:08:45;;;;;;;16.65;10.10;;;20.00;99.90;;;;;;5002626;28;20029;-69
2022/07/31 11:11:12;;;;;;;15.68;8.70;;;20.00;99.90;;;;;;5004548;28;20515;-71
2022/07/31 11:13:51;;;;;;;18.00;8.98;;;20.00;99.90;;;;;;5001717;28;20029;-70
2022/07/31 11:16:18;;;;;;;16.02;8.52;;;19.90;99.90;;;;;;5003279;28;20697;-70
2022/07/31 11:18:54;;;;;;;12.77;7.30;;;19.90;99.90;;;;;;5001637;28;20490;-70
2022/07/31 11:21:31;;;;;;;21.45;7.90;;;20.00;99.90;;;;;;5004813;28;20109;-70
2022/07/31 11:23:57;;;;;;;15.25;7.68;;;19.90;99.90;;;;;;4995279;28;20045;-71
2022/07/31 11:26:23;;;;;;;13.45;7.18;;;19.90;99.90;;;;;;4997495;28;20042;-70
2022/07/31 11:28:49;;;;;;;16.65;7.38;;;20.00;99.90;;;;;;4991381;28;20030;-71
2022/07/31 11:31:14;;;;;;;14.75;7.47;;;19.90;99.90;;;;;;4993478;28;20433;-69
2022/07/31 11:33:45;;;;;;;19.60;7.93;;;20.00;99.90;;;;;;5010269;28;20023;-71
2022/07/31 11:36:23;;;;;;;13.75;7.75;;;20.00;99.90;;;;;;4996175;28;20049;-70
2022/07/31 11:38:51;;;;;;;15.50;7.45;;;20.20;99.90;;;;;;4993331;28;20050;-70
2022/07/31 11:41:17;;;;;;;13.45;6.75;;;20.30;99.90;;;;;;4995552;28;20026;-71
2022/07/31 11:43:45;;;;;;;14.00;7.13;;;20.50;99.90;;;;;;4993738;28;20033;-70
2022/07/31 11:46:10;;;;;;;17.95;6.82;;;20.50;99.90;;;;;;4996312;28;20062;-70
2022/07/31 11:48:37;;;;;;;12.32;5.70;;;20.50;99.90;;;;;;4993941;28;20053;-71
2022/07/31 11:51:03;;;;;;;14.55;6.63;;;20.60;99.90;;;;;;5008469;28;20044;-70
2022/07/31 11:53:29;;;;;;;14.70;6.80;;;20.60;99.90;;;;;;4994421;28;20037;-70
2022/07/31 11:56:00;;;;;;;14.80;6.75;;;20.60;99.90;;;;;;4996507;28;20030;-71
2022/07/31 11:58:26;;;;;;;;;;;20.60;99.90;;;;;;5000958;28;20034;-70
2022/07/31 12:00:53;;;;;;;10.98;6.10;;;20.50;99.90;;;;;;4995068;28;19920;-69
2022/07/31 12:03:31;;;;;;;16.20;6.22;;;20.40;99.90;;;;;;4990655;28;20038;-70
2022/07/31 12:05:57;;;;;;;10.13;5.60;;;20.40;99.90;;;;;;4997378;28;20034;-70
2022/07/31 12:08:24;;;;;;;12.65;6.30;;;20.30;99.90;;;;;;4996905;28;20121;-71
2022/07/31 12:11:01;;;;;;;11.77;5.88;;;20.30;99.90;;;;;;4993003;28;20037;-70
2022/07/31 12:13:28;;;;;;;9.32;5.72;;;20.30;99.90;;;;;;4995046;28;20034;-70
2022/07/31 12:16:08;;;;;;;14.32;6.28;;;20.30;99.90;;;;;;4993165;28;20027;-70
2022/07/31 12:18:55;;;;;;;11.52;5.63;;;20.30;99.90;;;;;;4996599;28;20048;-70
2022/07/31 12:21:30;;;;;;;13.57;5.88;;;20.50;99.90;;;;;;5010594;28;20026;-70
2022/07/31 12:23:57;;;;;;;9.65;5.07;;;20.60;99.90;;;;;;4995554;28;20026;-69
2022/07/31 12:26:28;;;;;;;8.52;4.63;;;20.70;99.90;;;;;;5001399;28;20038;-69
2022/07/31 12:29:01;;;;;;;7.68;4.15;;;20.80;99.90;;;;;;4995917;28;20057;-70
2022/07/31 12:31:29;;;;;;;10.95;5.07;;;20.80;99.90;;;;;;5014767;28;20045;-71
2022/07/31 12:33:54;;;;;;;9.30;3.95;;;20.80;99.90;;;;;;4996353;28;20491;-71
2022/07/31 12:36:20;;;;;;;7.93;3.10;;;20.70;99.90;;;;;;4995635;28;20100;-70
2022/07/31 12:38:58;;;;;;;5.85;2.97;;;20.70;99.90;;;;;;4997045;28;20133;-69
2022/07/31 12:41:23;;;;;;;6.80;2.83;;;20.70;99.90;;;;;;4992758;28;20036;-71
2022/07/31 12:43:49;;;;;;;6.50;3.40;;;20.70;99.90;;;;;;4993388;28;20064;-69
2022/07/31 12:46:14;;;;;;;6.93;3.03;;;20.70;99.90;;;;;;4995128;28;20088;-70